Time;durP1;ratioP1;P1;durP2;ratioP2;P2;SDS_P1;SDS_P2;PMS_P1;PMS_P2;Temp;Humidity;BMP_temperature;BMP_pressure;BME280_temperature;BME280_humidity;BME280_pressure;Samples;Min_cycle;Max_cycle;Signal;HPM_P1;HPM_P2
2023/04/17 00:02:18;;;;;;;32.67;19.98;;;9.70;99.90;;;;;;5006349;28;20417;-63
2023/04/17 00:04:44;;;;;;;35.88;21.30;;;9.70;99.90;;;;;;4984813;28;20038;-63
2023/04/17 00:07:10;;;;;;;34.10;21.65;;;9.70;99.90;;;;;;4980307;28;20042;-63
2023/04/17 00:09:35;;;;;;;34.88;21.65;;;9.70;99.90;;;;;;5009000;28;20046;-63
2023/04/17 00:12:01;;;;;;;35.35;21.55;;;9.70;99.90;;;;;;5009820;28;20041;-63
2023/04/17 00:14:27;;;;;;;33.75;21.08;;;9.60;99.90;;;;;;4988183;28;20488;-63
2023/04/17 00:16:52;;;;;;;37.03;21.58;;;9.60;99.90;;;;;;5005347;28;20506;-67
2023/04/17 00:19:18;;;;;;;36.78;22.08;;;9.60;99.90;;;;;;5006127;28;20033;-64
2023/04/17 00:21:44;;;;;;;36.65;22.65;;;9.60;99.90;;;;;;5010633;28;20038;-63
2023/04/17 00:24:11;;;;;;;35.80;21.52;;;9.60;99.90;;;;;;4994326;28;20077;-64
2023/04/17 00:26:37;;;;;;;36.65;21.15;;;9.60;99.90;;;;;;5003396;28;20042;-64
2023/04/17 00:29:03;;;;;;;37.78;21.75;;;9.60;99.90;;;;;;5001867;28;20038;-68
2023/04/17 00:31:28;;;;;;;37.55;21.98;;;9.60;99.90;;;;;;4998067;28;20034;-63
2023/04/17 00:33:54;;;;;;;36.97;21.83;;;9.60;99.90;;;;;;5011189;28;20100;-65
2023/04/17 00:36:20;;;;;;;39.30;22.67;;;9.60;99.90;;;;;;5011663;28;20044;-63
2023/04/17 00:38:45;;;;;;;39.25;23.02;;;9.60;99.90;;;;;;5005161;28;20038;-65
2023/04/17 00:41:11;;;;;;;37.78;21.77;;;9.60;99.90;;;;;;5000560;28;20492;-63
2023/04/17 00:43:37;;;;;;;35.40;22.60;;;9.60;99.90;;;;;;5009403;28;20042;-63
2023/04/17 00:46:04;;;;;;;39.55;22.50;;;9.50;99.90;;;;;;5007760;28;20030;-63
2023/04/17 00:48:31;;;;;;;36.85;21.92;;;9.50;99.90;;;;;;5006404;28;20050;-64
2023/04/17 00:51:01;;;;;;;32.60;20.60;;;9.60;99.90;;;;;;4998098;28;20037;-63
2023/04/17 00:53:30;;;;;;;38.35;21.98;;;9.60;99.90;;;;;;4993965;28;20042;-65
2023/04/17 00:55:59;;;;;;;36.22;20.98;;;9.50;99.90;;;;;;5007589;28;20042;-68
2023/04/17 00:58:25;;;;;;;36.90;22.48;;;9.50;99.90;;;;;;5007950;28;20045;-64
2023/04/17 01:00:51;;;;;;;35.42;20.67;;;9.50;99.90;;;;;;5004375;28;20033;-63
2023/04/17 01:03:17;;;;;;;37.55;21.42;;;9.50;99.90;;;;;;4996321;28;20053;-63
2023/04/17 01:05:48;;;;;;;34.83;19.83;;;9.50;99.90;;;;;;5002330;28;20034;-65
2023/04/17 01:08:14;;;;;;;34.05;21.33;;;9.60;99.90;;;;;;5005737;28;20038;-67
2023/04/17 01:10:40;;;;;;;37.90;21.35;;;9.50;99.90;;;;;;5005391;28;20091;-67
2023/04/17 01:13:07;;;;;;;34.38;21.00;;;9.50;99.90;;;;;;5008169;28;20413;-63
2023/04/17 01:15:33;;;;;;;32.95;20.75;;;9.50;99.90;;;;;;5001283;28;20080;-65
2023/04/17 01:17:59;;;;;;;33.78;19.95;;;9.50;99.90;;;;;;5010911;28;20389;-64
2023/04/17 01:20:28;;;;;;;33.88;20.65;;;9.50;99.90;;;;;;5004169;28;20046;-64
2023/04/17 01:22:54;;;;;;;34.95;20.67;;;9.50;99.90;;;;;;4994361;28;20125;-63
2023/04/17 01:25:20;;;;;;;35.78;21.48;;;9.50;99.90;;;;;;4995765;28;20129;-63
2023/04/17 01:27:46;;;;;;;35.55;21.23;;;9.50;99.90;;;;;;5002806;28;20138;-63
2023/04/17 01:30:12;;;;;;;38.15;22.48;;;9.50;99.90;;;;;;5008522;28;20504;-64
2023/04/17 01:32:38;;;;;;;36.90;20.92;;;9.50;99.90;;;;;;4982662;28;20045;-64
2023/04/17 01:35:04;;;;;;;35.67;21.73;;;9.50;99.90;;;;;;4998774;28;20555;-64
2023/04/17 01:37:29;;;;;;;40.10;22.92;;;9.50;99.90;;;;;;5007277;28;20033;-65
2023/04/17 01:39:55;;;;;;;35.42;20.88;;;9.50;99.90;;;;;;5005651;28;20061;-67
2023/04/17 01:42:21;;;;;;;40.70;23.13;;;9.50;99.90;;;;;;5006307;28;20037;-64
2023/04/17 01:44:46;;;;;;;38.42;22.55;;;9.50;99.90;;;;;;5007817;28;20451;-64
2023/04/17 01:47:12;;;;;;;36.72;22.73;;;9.50;99.90;;;;;;4997664;28;20046;-64
2023/04/17 01:49:38;;;;;;;41.22;21.67;;;9.40;99.90;;;;;;5007094;28;20404;-63
2023/04/17 01:52:04;;;;;;;38.60;22.85;;;9.40;99.90;;;;;;4995770;28;20042;-66
2023/04/17 01:54:29;;;;;;;39.42;22.85;;;9.50;99.90;;;;;;5006994;28;20501;-64
2023/04/17 01:56:55;;;;;;;38.75;22.83;;;9.50;99.90;;;;;;5001870;28;20041;-63
2023/04/17 01:59:21;;;;;;;38.45;22.42;;;9.50;99.90;;;;;;5000843;28;20053;-63
2023/04/17 02:01:49;;;;;;;37.38;21.85;;;9.50;99.90;;;;;;5002921;28;20445;-64
2023/04/17 02:04:14;;;;;;;40.13;22.92;;;9.40;99.90;;;;;;5010980;28;20048;-64
2023/04/17 02:06:40;;;;;;;43.53;24.02;;;9.50;99.90;;;;;;5001975;28;20432;-64
2023/04/17 02:09:06;;;;;;;39.20;23.55;;;9.40;99.90;;;;;;5002837;28;20378;-63
2023/04/17 02:11:31;;;;;;;39.03;22.58;;;9.40;99.90;;;;;;4997844;28;20038;-69
2023/04/17 02:13:57;;;;;;;39.22;22.23;;;9.40;99.90;;;;;;5006059;28;20041;-64
2023/04/17 02:16:22;;;;;;;43.50;23.35;;;9.40;99.90;;;;;;5004889;28;20049;-63
2023/04/17 02:18:49;;;;;;;44.88;23.70;;;9.50;99.90;;;;;;4986755;28;20052;-66
2023/04/17 02:21:14;;;;;;;48.20;25.45;;;9.40;99.90;;;;;;5000530;28;20034;-67
2023/04/17 02:23:40;;;;;;;39.33;24.13;;;9.50;99.90;;;;;;5007981;28;20038;-63
2023/04/17 02:26:06;;;;;;;42.00;24.98;;;9.40;99.90;;;;;;5005350;28;20088;-64
2023/04/17 02:28:31;;;;;;;41.10;24.23;;;9.40;99.90;;;;;;5002095;28;20073;-70
2023/04/17 02:30:57;;;;;;;43.08;24.42;;;9.40;99.90;;;;;;5003722;28;20034;-64
2023/04/17 02:33:23;;;;;;;43.83;25.77;;;9.40;99.90;;;;;;5005878;28;20037;-67
2023/04/17 02:35:48;;;;;;;46.30;25.77;;;9.40;99.90;;;;;;5009568;28;20064;-63
2023/04/17 02:38:14;;;;;;;43.95;25.50;;;9.40;99.90;;;;;;4997924;28;20124;-67
2023/04/17 02:40:39;;;;;;;44.47;25.58;;;9.40;99.90;;;;;;5005580;28;20038;-63
2023/04/17 02:43:05;;;;;;;41.47;23.88;;;9.40;99.90;;;;;;5003357;28;20048;-65
2023/04/17 02:45:31;;;;;;;47.25;25.60;;;9.40;99.90;;;;;;5001769;28;20511;-63
2023/04/17 02:47:56;;;;;;;48.08;26.67;;;9.40;99.90;;;;;;5002244;28;20045;-64
2023/04/17 02:50:22;;;;;;;48.83;26.60;;;9.40;99.90;;;;;;5003309;28;20509;-64
2023/04/17 02:52:47;;;;;;;48.03;25.95;;;9.40;99.90;;;;;;5003228;28;20038;-64
2023/04/17 02:55:13;;;;;;;50.05;27.52;;;9.40;99.90;;;;;;4979841;28;20034;-66
2023/04/17 02:57:39;;;;;;;47.22;25.88;;;9.40;99.90;;;;;;5001781;28;20053;-64
2023/04/17 03:00:06;;;;;;;48.85;26.20;;;9.40;99.90;;;;;;5001826;28;20419;-64
2023/04/17 03:02:32;;;;;;;46.13;26.25;;;9.40;99.90;;;;;;4996481;28;20062;-63
2023/04/17 03:05:00;;;;;;;50.38;27.65;;;9.40;99.90;;;;;;5003290;28;20495;-64
2023/04/17 03:07:26;;;;;;;50.22;27.50;;;9.40;99.90;;;;;;5012486;28;20045;-64
2023/04/17 03:09:52;;;;;;;47.40;27.08;;;9.40;99.90;;;;;;5005260;28;20034;-65
2023/04/17 03:12:18;;;;;;;52.53;27.55;;;9.40;99.90;;;;;;5004677;28;20070;-66
2023/04/17 03:14:44;;;;;;;49.75;27.08;;;9.40;99.90;;;;;;5005763;28;20057;-63
2023/04/17 03:17:10;;;;;;;53.47;28.15;;;9.40;99.90;;;;;;4986085;28;20034;-63
2023/04/17 03:19:36;;;;;;;47.47;27.30;;;9.40;99.90;;;;;;5003666;28;20534;-65
2023/04/17 03:22:03;;;;;;;49.28;28.02;;;9.30;99.90;;;;;;4990652;28;20042;-67
2023/04/17 03:24:30;;;;;;;51.50;28.60;;;9.40;99.90;;;;;;5004989;28;20073;-66
2023/04/17 03:26:56;;;;;;;48.40;26.75;;;9.30;99.90;;;;;;5003067;28;20125;-63
2023/04/17 03:29:22;;;;;;;48.00;27.00;;;9.40;99.90;;;;;;5007019;28;20069;-63
2023/04/17 03:31:48;;;;;;;48.63;26.92;;;9.30;99.90;;;;;;5001469;28;20050;-64
2023/04/17 03:34:13;;;;;;;49.22;27.45;;;9.30;99.90;;;;;;4999253;28;20049;-63
2023/04/17 03:36:39;;;;;;;50.30;27.65;;;9.30;99.90;;;;;;5010089;28;20041;-66
2023/04/17 03:39:04;;;;;;;43.35;26.10;;;9.30;99.90;;;;;;5007304;28;20033;-66
2023/04/17 03:41:30;;;;;;;48.90;28.23;;;9.40;99.90;;;;;;5005132;28;20033;-63
2023/04/17 03:43:55;;;;;;;45.65;26.83;;;9.30;99.90;;;;;;4992134;28;20473;-63
2023/04/17 03:46:21;;;;;;;48.20;28.35;;;9.40;99.90;;;;;;5012244;28;20041;-64
2023/04/17 03:48:47;;;;;;;49.13;27.48;;;9.40;99.90;;;;;;5010786;28;20042;-63
2023/04/17 03:51:12;;;;;;;48.65;28.20;;;9.40;99.90;;;;;;5006531;28;20115;-63
2023/04/17 03:53:38;;;;;;;53.17;27.75;;;9.40;99.90;;;;;;4998269;28;20042;-63
2023/04/17 03:56:03;;;;;;;52.42;28.73;;;9.30;99.90;;;;;;5003041;28;20041;-65
2023/04/17 03:58:29;;;;;;;53.42;28.60;;;9.30;99.90;;;;;;5010909;28;20052;-66
2023/04/17 04:00:57;;;;;;;50.05;27.27;;;9.40;99.90;;;;;;5002460;28;20508;-63
2023/04/17 04:03:23;;;;;;;48.25;27.65;;;9.40;99.90;;;;;;4991987;28;20445;-63
2023/04/17 04:05:49;;;;;;;49.03;27.13;;;9.40;99.90;;;;;;5002247;28;20038;-63
2023/04/17 04:08:14;;;;;;;51.17;27.45;;;9.30;99.90;;;;;;4986063;28;20041;-63
2023/04/17 04:10:43;;;;;;;48.08;26.60;;;9.30;99.90;;;;;;5003166;28;20050;-65
2023/04/17 04:13:08;;;;;;;50.53;28.30;;;9.30;99.90;;;;;;4999883;28;20042;-63
2023/04/17 04:15:34;;;;;;;47.55;27.58;;;9.30;99.90;;;;;;5012068;28;20041;-67
2023/04/17 04:17:59;;;;;;;51.95;29.55;;;9.20;99.90;;;;;;5006766;28;20198;-64
2023/04/17 04:20:25;;;;;;;50.55;28.35;;;9.30;99.90;;;;;;5011650;28;20034;-63
2023/04/17 04:22:50;;;;;;;51.17;29.75;;;9.30;99.90;;;;;;5007478;28;20038;-64
2023/04/17 04:25:16;;;;;;;51.33;28.40;;;9.20;99.90;;;;;;4998224;28;20121;-66
2023/04/17 04:27:48;;;;;;;51.25;28.83;;;9.20;99.90;;;;;;4985033;28;20037;-63
2023/04/17 04:30:15;;;;;;;49.97;27.38;;;9.20;99.90;;;;;;4986628;28;20045;-63
2023/04/17 04:32:41;;;;;;;49.35;28.02;;;9.20;99.90;;;;;;5009724;28;20149;-63
2023/04/17 04:35:08;;;;;;;51.15;27.88;;;9.20;99.90;;;;;;5011633;28;20473;-64
2023/04/17 04:37:34;;;;;;;48.80;27.75;;;9.20;99.90;;;;;;5010267;28;20297;-63
2023/04/17 04:40:09;;;;;;;55.75;29.80;;;9.20;99.90;;;;;;5001227;28;20408;-63
2023/04/17 04:42:41;;;;;;;51.28;28.23;;;9.20;99.90;;;;;;5001731;28;20042;-64
2023/04/17 04:45:08;;;;;;;53.70;28.65;;;9.20;99.90;;;;;;4992092;28;20046;-66
2023/04/17 04:47:35;;;;;;;53.67;28.83;;;9.30;99.90;;;;;;4998866;28;20034;-63
2023/04/17 04:50:00;;;;;;;53.42;29.67;;;9.20;99.90;;;;;;5004149;28;20057;-64
2023/04/17 04:52:26;;;;;;;51.25;28.33;;;9.20;99.90;;;;;;4999780;28;20042;-63
2023/04/17 04:54:52;;;;;;;54.42;29.42;;;9.20;99.90;;;;;;5010591;28;20037;-63
2023/04/17 04:57:18;;;;;;;52.65;29.52;;;9.20;99.90;;;;;;5004788;28;20034;-63
2023/04/17 04:59:43;;;;;;;55.20;29.05;;;9.20;99.90;;;;;;5005567;28;20041;-65
2023/04/17 05:02:09;;;;;;;53.63;28.92;;;9.20;99.90;;;;;;5001786;28;20065;-63
2023/04/17 05:04:34;;;;;;;48.28;27.92;;;9.20;99.90;;;;;;5006814;28;20041;-66
2023/04/17 05:07:00;;;;;;;52.80;29.05;;;9.20;99.90;;;;;;4996129;28;20037;-64
2023/04/17 05:09:26;;;;;;;53.65;28.90;;;9.30;99.90;;;;;;5007747;28;20081;-64
2023/04/17 05:11:55;;;;;;;46.40;26.92;;;9.20;99.90;;;;;;5010858;28;20069;-65
2023/04/17 05:14:21;;;;;;;51.97;28.42;;;9.20;99.90;;;;;;5011183;28;20081;-64
2023/04/17 05:16:47;;;;;;;50.65;28.15;;;9.20;99.90;;;;;;4989088;28;20111;-64
2023/04/17 05:19:12;;;;;;;54.83;27.55;;;9.20;99.90;;;;;;5010011;28;20034;-63
2023/04/17 05:21:38;;;;;;;47.88;27.38;;;9.20;99.90;;;;;;5007353;28;20033;-66
2023/04/17 05:24:03;;;;;;;49.33;27.25;;;9.20;99.90;;;;;;5004096;28;20057;-63
2023/04/17 05:26:29;;;;;;;46.10;26.55;;;9.20;99.90;;;;;;5006628;28;20041;-64
2023/04/17 05:28:54;;;;;;;45.67;26.63;;;9.20;99.90;;;;;;5006117;28;20041;-64
2023/04/17 05:31:20;;;;;;;47.15;27.30;;;9.20;99.90;;;;;;4979170;28;20084;-67
2023/04/17 05:33:46;;;;;;;46.30;26.58;;;9.30;99.90;;;;;;4996935;28;20042;-65
2023/04/17 05:36:12;;;;;;;49.85;25.73;;;9.30;99.90;;;;;;5009588;28;20048;-68
2023/04/17 05:38:38;;;;;;;43.85;25.85;;;9.30;99.90;;;;;;5001921;28;20072;-65
2023/04/17 05:41:06;;;;;;;41.45;24.10;;;9.20;99.90;;;;;;5003556;28;20026;-64
2023/04/17 05:43:32;;;;;;;41.42;24.73;;;9.20;99.90;;;;;;5006179;28;20053;-68
2023/04/17 05:45:57;;;;;;;44.50;25.00;;;9.20;99.90;;;;;;4999055;28;20030;-64
2023/04/17 05:48:23;;;;;;;40.20;23.85;;;9.20;99.90;;;;;;5002900;28;20042;-64
2023/04/17 05:50:49;;;;;;;39.67;23.58;;;9.20;99.90;;;;;;5001018;28;20038;-66
2023/04/17 05:53:14;;;;;;;44.95;24.10;;;9.20;99.90;;;;;;5005786;28;20049;-64
2023/04/17 05:55:40;;;;;;;40.17;23.52;;;9.20;99.90;;;;;;5006349;28;20061;-64
2023/04/17 05:58:06;;;;;;;42.67;24.50;;;9.20;99.90;;;;;;4997480;28;20026;-64
2023/04/17 06:00:31;;;;;;;41.13;24.55;;;9.20;99.90;;;;;;4994813;28;20042;-69
2023/04/17 06:02:57;;;;;;;41.80;24.40;;;9.20;99.90;;;;;;4994246;28;20034;-69
2023/04/17 06:05:23;;;;;;;41.50;23.83;;;9.20;99.90;;;;;;4997779;28;20096;-67
2023/04/17 06:07:49;;;;;;;42.28;24.75;;;9.20;99.90;;;;;;5006182;28;20030;-64
2023/04/17 06:10:14;;;;;;;43.22;25.13;;;9.20;99.90;;;;;;5001528;28;20045;-64
2023/04/17 06:12:40;;;;;;;42.78;24.10;;;9.20;99.90;;;;;;4986215;28;20405;-64
2023/04/17 06:15:09;;;;;;;40.95;24.60;;;9.20;99.90;;;;;;4999165;28;20404;-65
2023/04/17 06:17:36;;;;;;;40.40;24.60;;;9.20;99.90;;;;;;5002650;28;20045;-64
2023/04/17 06:20:04;;;;;;;44.83;25.27;;;9.20;99.90;;;;;;5008210;28;20030;-65
2023/04/17 06:22:31;;;;;;;41.38;24.50;;;9.20;99.90;;;;;;5001638;28;20484;-65
2023/04/17 06:24:56;;;;;;;46.70;24.58;;;9.20;99.90;;;;;;5000930;28;20038;-64
2023/04/17 06:27:22;;;;;;;39.80;23.48;;;9.20;99.90;;;;;;4992436;28;20039;-64
2023/04/17 06:29:48;;;;;;;40.65;23.80;;;9.30;99.90;;;;;;5003709;28;20522;-67
2023/04/17 06:32:13;;;;;;;39.88;24.00;;;9.30;99.90;;;;;;5005472;28;20373;-64
2023/04/17 06:34:39;;;;;;;41.42;24.27;;;9.30;99.90;;;;;;5005493;28;20119;-64
2023/04/17 06:37:04;;;;;;;38.72;24.15;;;9.30;99.90;;;;;;4997552;28;20041;-64
2023/04/17 06:39:31;;;;;;;40.08;23.98;;;9.30;99.90;;;;;;5008769;28;20091;-65
2023/04/17 06:41:58;;;;;;;40.15;23.42;;;9.30;99.90;;;;;;5007877;28;20445;-65
2023/04/17 06:44:23;;;;;;;40.58;22.83;;;9.30;99.90;;;;;;5002974;28;20117;-64
2023/04/17 06:46:52;;;;;;;39.33;23.77;;;9.40;99.90;;;;;;5011882;28;20140;-64
2023/04/17 06:49:18;;;;;;;39.75;23.70;;;9.40;99.90;;;;;;5019261;22;20741;-71
2023/04/17 06:51:44;;;;;;;39.17;23.13;;;9.40;99.90;;;;;;4960359;28;20046;-71
2023/04/17 06:54:10;;;;;;;39.80;24.15;;;9.40;99.90;;;;;;4962390;28;20479;-71
2023/04/17 06:56:36;;;;;;;41.35;24.92;;;9.40;99.90;;;;;;4987054;28;20117;-71
2023/04/17 06:59:02;;;;;;;42.22;25.20;;;9.40;99.90;;;;;;4965260;28;20170;-71
2023/04/17 07:01:30;;;;;;;39.67;23.08;;;9.50;99.90;;;;;;4998965;28;20043;-71
2023/04/17 07:03:55;;;;;;;39.63;23.48;;;9.50;99.90;;;;;;4984585;28;20082;-72
2023/04/17 07:06:23;;;;;;;41.25;24.33;;;9.50;99.90;;;;;;4957794;28;20085;-71
2023/04/17 07:08:48;;;;;;;43.17;25.40;;;9.50;99.90;;;;;;4985715;28;20043;-71
2023/04/17 07:11:14;;;;;;;41.10;24.38;;;9.60;99.90;;;;;;4975592;28;20515;-71
2023/04/17 07:13:40;;;;;;;40.83;24.20;;;9.60;99.90;;;;;;4984816;28;20039;-71
2023/04/17 07:16:07;;;;;;;39.15;24.05;;;9.70;99.90;;;;;;4981711;28;20034;-71
2023/04/17 07:18:32;;;;;;;40.83;24.73;;;9.70;99.90;;;;;;4969084;28;20038;-72
2023/04/17 07:20:58;;;;;;;38.78;24.13;;;9.70;99.90;;;;;;4969170;28;20026;-72
2023/04/17 07:23:24;;;;;;;40.03;23.50;;;9.80;99.90;;;;;;4988887;28;20034;-71
2023/04/17 07:25:49;;;;;;;41.72;24.15;;;9.80;99.90;;;;;;4955125;28;20121;-71
2023/04/17 07:28:16;;;;;;;36.42;22.88;;;9.90;99.90;;;;;;4965482;28;20447;-71
2023/04/17 07:30:41;;;;;;;40.60;24.15;;;9.90;99.90;;;;;;4976124;28;20061;-71
2023/04/17 07:33:07;;;;;;;37.05;23.02;;;9.90;99.90;;;;;;4975292;28;20034;-71
2023/04/17 07:35:33;;;;;;;37.90;23.00;;;10.00;99.90;;;;;;4957209;28;20122;-71
2023/04/17 07:38:00;;;;;;;34.17;21.70;;;10.00;99.90;;;;;;4959210;28;20043;-71
2023/04/17 07:40:27;;;;;;;36.50;22.35;;;10.10;99.90;;;;;;4956652;28;20062;-70
2023/04/17 07:42:54;;;;;;;36.83;23.30;;;10.10;99.90;;;;;;4970363;28;20050;-71
2023/04/17 07:45:20;;;;;;;38.25;23.05;;;10.20;99.90;;;;;;4954502;28;20515;-72
2023/04/17 07:47:46;;;;;;;36.50;22.60;;;10.20;99.90;;;;;;4980135;28;20082;-71
2023/04/17 07:50:11;;;;;;;35.95;22.13;;;10.30;99.90;;;;;;4968811;28;20130;-71
2023/04/17 07:52:37;;;;;;;33.42;22.48;;;10.30;99.90;;;;;;4959658;28;20039;-71
2023/04/17 07:55:03;;;;;;;34.72;21.88;;;10.40;99.90;;;;;;4962731;28;20074;-71
2023/04/17 07:57:29;;;;;;;32.85;21.10;;;10.50;99.90;;;;;;4953808;28;20090;-71
2023/04/17 07:59:54;;;;;;;32.95;21.08;;;10.50;99.90;;;;;;4980399;28;20031;-71
2023/04/17 08:02:20;;;;;;;33.60;21.63;;;10.60;99.90;;;;;;4985977;28;20464;-71
2023/04/17 08:04:46;;;;;;;32.25;21.88;;;10.60;99.90;;;;;;4966740;28;20038;-72
2023/04/17 08:07:11;;;;;;;31.17;20.17;;;10.70;99.90;;;;;;4964973;28;20055;-71
2023/04/17 08:09:38;;;;;;;32.22;20.67;;;10.70;99.90;;;;;;4973456;28;20034;-71
2023/04/17 08:12:04;;;;;;;36.78;22.27;;;10.80;99.90;;;;;;4988333;28;20398;-71
2023/04/17 08:14:30;;;;;;;34.78;21.30;;;10.80;99.90;;;;;;4991500;28;20038;-71
2023/04/17 08:16:55;;;;;;;31.15;21.02;;;10.90;99.90;;;;;;4959804;28;20564;-71
2023/04/17 08:19:21;;;;;;;33.72;21.55;;;11.00;99.90;;;;;;4969391;28;20125;-71
2023/04/17 08:21:47;;;;;;;33.67;21.17;;;11.00;99.90;;;;;;4975140;28;20568;-71
2023/04/17 08:24:13;;;;;;;34.38;20.88;;;11.00;99.90;;;;;;4987570;28;20517;-71
2023/04/17 08:26:38;;;;;;;34.63;21.90;;;11.00;99.90;;;;;;4984173;28;20070;-71
2023/04/17 08:29:04;;;;;;;32.83;21.63;;;11.00;99.90;;;;;;4946193;28;20038;-71
2023/04/17 08:31:30;;;;;;;34.47;21.58;;;11.00;99.90;;;;;;4964655;28;20047;-72
2023/04/17 08:33:57;;;;;;;33.85;22.52;;;11.10;99.90;;;;;;4968153;28;20049;-71
2023/04/17 08:36:22;;;;;;;34.83;21.42;;;11.20;99.90;;;;;;4960419;28;20054;-71
2023/04/17 08:38:48;;;;;;;34.22;21.92;;;11.20;99.90;;;;;;4960751;28;20042;-71
2023/04/17 08:41:20;;;;;;;32.83;21.92;;;11.30;99.90;;;;;;4953451;28;20046;-72
2023/04/17 08:43:49;;;;;;;35.35;22.85;;;11.40;99.90;;;;;;4964189;28;20078;-71
2023/04/17 08:46:17;;;;;;;33.55;22.38;;;11.50;99.90;;;;;;4961709;28;20108;-71
2023/04/17 08:48:43;;;;;;;34.05;21.63;;;11.60;99.90;;;;;;4989669;28;20049;-71
2023/04/17 08:51:09;;;;;;;32.47;21.88;;;11.70;99.90;;;;;;4966840;28;20042;-74
2023/04/17 08:53:35;;;;;;;32.47;21.63;;;11.80;99.90;;;;;;4938825;28;20407;-71
2023/04/17 08:56:05;;;;;;;34.22;21.65;;;11.90;99.90;;;;;;4961323;28;20042;-72
2023/04/17 08:58:34;;;;;;;34.35;22.48;;;12.00;99.90;;;;;;5000596;28;20486;-72
2023/04/17 09:01:08;;;;;;;33.38;21.85;;;12.10;99.90;;;;;;4962952;28;20054;-71
2023/04/17 09:03:47;;;;;;;32.60;21.38;;;12.20;99.90;;;;;;4966948;28;20410;-71
2023/04/17 09:06:14;;;;;;;32.95;21.45;;;12.30;99.90;;;;;;4986592;28;20434;-71
2023/04/17 09:09:03;;;;;;;32.28;21.13;;;12.50;99.90;;;;;;4971279;28;20042;-71
2023/04/17 09:11:29;;;;;;;29.48;20.15;;;12.70;99.90;;;;;;4958918;28;20057;-71
2023/04/17 09:13:55;;;;;;;30.73;20.38;;;12.80;99.90;;;;;;4967382;28;20039;-71
2023/04/17 09:16:23;;;;;;;29.27;20.40;;;13.00;99.90;;;;;;4964984;28;20034;-72
2023/04/17 09:18:48;;;;;;;28.65;19.83;;;13.10;99.90;;;;;;4983309;28;20039;-72
2023/04/17 09:21:17;;;;;;;31.92;21.13;;;13.10;99.90;;;;;;4977606;28;20625;-71
2023/04/17 09:23:48;;;;;;;27.08;19.42;;;13.10;99.90;;;;;;4965759;28;20503;-71
2023/04/17 09:26:19;;;;;;;31.80;20.83;;;13.20;99.90;;;;;;4973264;28;20403;-71
2023/04/17 09:29:15;;;;;;;26.33;19.52;;;13.50;99.90;;;;;;4994040;28;20291;-71
2023/04/17 09:31:41;;;;;;;28.58;19.80;;;13.70;99.90;;;;;;4946326;28;20105;-72
2023/04/17 09:34:12;;;;;;;29.48;20.67;;;13.80;99.90;;;;;;4955412;28;20520;-71
2023/04/17 09:36:42;;;;;;;28.63;19.67;;;13.90;99.90;;;;;;4979679;28;20094;-71
2023/04/17 09:39:22;;;;;;;28.00;20.90;;;14.00;99.90;;;;;;4977152;28;20054;-71
2023/04/17 09:41:48;;;;;;;26.48;19.95;;;14.10;99.90;;;;;;4963349;28;20049;-71
2023/04/17 09:44:25;;;;;;;29.48;20.85;;;14.20;99.90;;;;;;4958442;28;20046;-72
2023/04/17 09:46:52;;;;;;;29.55;21.23;;;14.30;99.90;;;;;;4967268;28;20129;-72
2023/04/17 09:49:24;;;;;;;29.38;21.73;;;14.40;99.90;;;;;;4959080;28;20039;-72
2023/04/17 09:51:51;;;;;;;28.13;21.60;;;14.50;99.90;;;;;;4963304;28;20487;-72
2023/04/17 09:54:18;;;;;;;28.45;20.42;;;14.60;99.90;;;;;;4961767;28;20138;-72
2023/04/17 09:56:48;;;;;;;30.25;21.83;;;14.60;99.90;;;;;;4977434;28;20039;-71
2023/04/17 09:59:14;;;;;;;29.65;22.48;;;14.70;99.90;;;;;;4960852;28;20042;-72
2023/04/17 10:01:41;;;;;;;31.05;22.38;;;14.70;99.90;;;;;;4973541;28;20125;-71
2023/04/17 10:04:06;;;;;;;32.53;23.23;;;14.70;99.90;;;;;;4972448;28;20124;-71
2023/04/17 10:06:33;;;;;;;30.05;23.23;;;14.80;99.90;;;;;;4957959;28;20491;-71
2023/04/17 10:08:59;;;;;;;31.10;22.88;;;14.80;99.90;;;;;;4963073;28;20069;-72
2023/04/17 10:11:33;;;;;;;33.40;23.98;;;14.90;99.90;;;;;;4968533;28;20038;-72
2023/04/17 10:14:25;;;;;;;33.03;23.65;;;15.00;99.90;;;;;;4951540;28;20081;-72
2023/04/17 10:16:50;;;;;;;32.03;24.33;;;15.10;99.90;;;;;;4954297;28;20051;-71
2023/04/17 10:19:32;;;;;;;31.67;23.98;;;15.00;99.90;;;;;;4979254;28;20048;-71
2023/04/17 10:22:27;;;;;;;32.65;24.42;;;15.10;99.90;;;;;;4955014;28;20042;-72
2023/04/17 10:25:13;;;;;;;32.10;23.35;;;15.10;99.90;;;;;;4956579;28;20042;-71
2023/04/17 10:27:41;;;;;;;32.80;24.42;;;15.20;99.90;;;;;;4951939;28;20499;-72
2023/04/17 10:30:11;;;;;;;30.52;24.20;;;15.30;99.90;;;;;;4968339;28;20038;-71
2023/04/17 10:32:38;;;;;;;33.22;24.40;;;15.30;99.90;;;;;;4963824;28;20070;-72
2023/04/17 10:35:16;;;;;;;31.25;23.13;;;15.30;99.90;;;;;;4964870;28;20045;-72
2023/04/17 10:37:50;;;;;;;27.60;22.50;;;15.50;99.90;;;;;;4971073;28;20070;-72
2023/04/17 10:40:28;;;;;;;27.42;21.77;;;15.80;99.90;;;;;;4974025;28;20042;-72
2023/04/17 10:43:02;;;;;;;28.55;22.77;;;16.10;99.90;;;;;;4964991;28;20070;-72
2023/04/17 10:45:53;;;;;;;29.48;21.50;;;16.40;99.90;;;;;;4962878;28;20042;-72
2023/04/17 10:48:20;;;;;;;29.20;22.48;;;16.60;99.90;;;;;;4979991;28;20046;-72
2023/04/17 10:50:46;;;;;;;26.95;21.30;;;16.70;99.90;;;;;;4961624;28;20053;-72
2023/04/17 10:53:38;;;;;;;24.50;20.65;;;16.90;99.90;;;;;;4983291;28;20574;-72
2023/04/17 10:56:04;;;;;;;23.02;18.77;;;16.80;99.90;;;;;;4961143;28;20038;-72
2023/04/17 10:58:29;;;;;;;24.55;18.92;;;16.70;99.90;;;;;;4966845;28;20110;-72
2023/04/17 11:00:55;;;;;;;23.60;18.67;;;16.60;99.90;;;;;;4979876;28;20097;-72
2023/04/17 11:03:25;;;;;;;21.45;18.40;;;16.50;99.90;;;;;;4973537;28;20503;-72
2023/04/17 11:05:51;;;;;;;22.33;18.05;;;16.50;99.90;;;;;;4954078;28;20110;-71
2023/04/17 11:08:16;;;;;;;25.40;18.25;;;16.60;99.90;;;;;;4972963;28;20050;-72
2023/04/17 11:10:42;;;;;;;21.42;18.17;;;16.60;99.90;;;;;;4971765;28;20105;-72
2023/04/17 11:13:09;;;;;;;20.77;17.35;;;16.50;99.90;;;;;;4965956;28;20053;-74
2023/04/17 11:15:35;;;;;;;21.77;17.55;;;16.30;99.90;;;;;;4958692;28;20042;-72
2023/04/17 11:18:02;;;;;;;21.48;16.75;;;16.30;99.90;;;;;;4967788;28;20126;-72
2023/04/17 11:20:29;;;;;;;18.20;15.13;;;16.50;99.90;;;;;;4985043;28;20031;-72
2023/04/17 11:22:59;;;;;;;19.05;15.52;;;16.70;99.90;;;;;;4967610;28;20541;-72
2023/04/17 11:25:30;;;;;;;19.95;14.65;;;17.00;99.90;;;;;;4977202;28;20035;-72
2023/04/17 11:28:04;;;;;;;15.75;13.70;;;17.30;99.90;;;;;;4967179;28;20035;-72
2023/04/17 11:30:32;;;;;;;16.25;13.35;;;17.30;99.90;;;;;;4980899;28;20042;-72
2023/04/17 11:33:06;;;;;;;17.67;14.07;;;17.30;99.90;;;;;;4957691;28;20035;-71
2023/04/17 11:35:34;;;;;;;16.85;13.27;;;17.50;99.90;;;;;;4964027;28;20069;-72
2023/04/17 11:38:20;;;;;;;14.85;12.85;;;17.50;99.90;;;;;;4976431;28;20035;-72
2023/04/17 11:40:51;;;;;;;17.05;12.93;;;17.40;99.90;;;;;;4974381;28;20039;-71
2023/04/17 11:43:18;;;;;;;17.02;12.77;;;17.30;99.90;;;;;;4962961;28;20051;-72
2023/04/17 11:45:46;;;;;;;14.55;12.05;;;17.20;99.90;;;;;;4983110;28;20070;-72
2023/04/17 11:48:13;;;;;;;12.73;11.35;;;17.00;99.90;;;;;;4975052;28;20078;-72
2023/04/17 11:50:41;;;;;;;13.85;11.70;;;16.90;99.90;;;;;;4956269;28;20507;-72
2023/04/17 11:53:07;;;;;;;18.20;12.00;;;16.90;99.90;;;;;;4963839;28;20145;-72
2023/04/17 11:55:33;;;;;;;14.68;11.07;;;17.10;99.90;;;;;;4976465;28;20141;-71
2023/04/17 11:58:04;;;;;;;14.43;10.85;;;17.30;99.90;;;;;;4958052;28;20093;-73
2023/04/17 12:00:31;;;;;;;14.00;11.75;;;17.50;99.90;;;;;;4971862;28;20484;-73
2023/04/17 12:02:58;;;;;;;16.58;11.02;;;17.70;99.90;;;;;;4979696;28;20071;-73
2023/04/17 12:05:26;;;;;;;14.02;11.05;;;17.90;99.90;;;;;;4956973;28;20457;-73
2023/04/17 12:08:06;;;;;;;15.55;10.85;;;18.00;99.90;;;;;;4974169;28;20046;-73
2023/04/17 12:10:44;;;;;;;15.00;11.70;;;18.00;99.90;;;;;;4945973;28;20109;-73
2023/04/17 12:13:10;;;;;;;13.85;10.48;;;17.90;99.90;;;;;;4974249;28;20043;-73
2023/04/17 12:15:37;;;;;;;13.63;10.07;;;17.70;99.90;;;;;;4986050;28;20026;-72
2023/04/17 12:18:04;;;;;;;14.40;10.45;;;17.50;99.90;;;;;;4964999;28;20039;-73
2023/04/17 12:20:37;;;;;;;13.90;9.63;;;17.20;99.90;;;;;;4956599;28;20054;-73
2023/04/17 12:23:04;;;;;;;12.48;9.70;;;17.00;99.90;;;;;;4961058;28;20073;-73
2023/04/17 12:25:33;;;;;;;12.68;9.38;;;16.80;99.90;;;;;;4985496;28;20363;-73
2023/04/17 12:27:59;;;;;;;12.18;10.00;;;16.80;99.90;;;;;;4974228;28;20406;-73
2023/04/17 12:30:25;;;;;;;13.57;9.68;;;16.80;99.90;;;;;;4956353;28;20081;-73
2023/04/17 12:32:52;;;;;;;11.45;9.20;;;16.90;99.90;;;;;;4956093;28;20034;-74
2023/04/17 12:35:18;;;;;;;12.98;9.60;;;17.10;99.90;;;;;;4960901;28;20431;-73